Time;durP1;ratioP1;P1;durP2;ratioP2;P2;SDS_P1;SDS_P2;PMS_P1;PMS_P2;Temp;Humidity;BMP_temperature;BMP_pressure;BME280_temperature;BME280_humidity;BME280_pressure;Samples;Min_cycle;Max_cycle;Signal;HPM_P1;HPM_P2
2022/03/20 00:01:48;;;;;;;58.08;21.52;;;;;;;-0.36;72.92;96558.31;5099835;28;20035;-75
2022/03/20 00:04:14;;;;;;;58.85;22.38;;;;;;;-0.54;73.37;96561.22;5095380;28;20571;-75
2022/03/20 00:06:39;;;;;;;61.42;22.95;;;;;;;-0.67;73.70;96561.81;5104204;28;20392;-75
2022/03/20 00:09:06;;;;;;;61.10;23.27;;;;;;;-0.54;74.27;96562.03;5099303;28;20111;-75
2022/03/20 00:11:31;;;;;;;60.13;21.77;;;;;;;-0.49;73.72;96550.34;5104158;28;20040;-75
2022/03/20 00:13:57;;;;;;;56.97;21.70;;;;;;;-0.47;73.59;96556.19;5106562;28;20067;-75
2022/03/20 00:16:23;;;;;;;57.95;22.58;;;;;;;-0.64;73.85;96556.28;5102677;28;20085;-75
2022/03/20 00:18:49;;;;;;;62.17;23.15;;;;;;;-0.68;73.89;96554.22;5104061;28;20043;-75
2022/03/20 00:21:15;;;;;;;57.00;22.17;;;;;;;-0.72;73.94;96553.75;5096738;28;20043;-75
2022/03/20 00:23:44;;;;;;;62.45;23.63;;;;;;;-0.77;74.67;96543.13;5108825;28;20401;-75
2022/03/20 00:26:10;;;;;;;65.88;24.15;;;;;;;-0.82;75.23;96553.16;5104732;28;20433;-75
2022/03/20 00:28:35;;;;;;;59.40;24.98;;;;;;;-0.84;74.89;96545.59;5104380;28;20046;-75
2022/03/20 00:31:01;;;;;;;66.53;23.70;;;;;;;-0.88;75.23;96545.13;5080532;28;20043;-75
2022/03/20 00:33:27;;;;;;;71.45;24.70;;;;;;;-0.76;74.86;96547.31;5101426;28;20040;-75
2022/03/20 00:35:53;;;;;;;62.60;24.42;;;;;;;-0.84;75.05;96548.16;5095180;28;20039;-75
2022/03/20 00:38:18;;;;;;;66.28;24.05;;;;;;;-1.02;76.17;96543.28;5104245;28;20877;-75
2022/03/20 00:40:44;;;;;;;60.03;22.85;;;;;;;-0.96;75.96;96552.94;5100709;28;20050;-75
2022/03/20 00:43:10;;;;;;;66.95;23.90;;;;;;;-0.96;75.88;96552.94;5100740;28;20473;-75
2022/03/20 00:45:35;;;;;;;68.28;24.85;;;;;;;-0.91;75.49;96555.78;5100045;28;20107;-75
2022/03/20 00:48:02;;;;;;;70.78;25.05;;;;;;;-0.93;75.80;96557.75;5094454;28;20043;-75
2022/03/20 00:50:28;;;;;;;65.63;23.17;;;;;;;-0.98;76.29;96554.88;5096326;28;20040;-75
2022/03/20 00:52:54;;;;;;;64.82;24.75;;;;;;;-0.93;76.06;96546.63;5091979;28;20405;-74
2022/03/20 00:55:20;;;;;;;73.80;25.30;;;;;;;-1.06;75.48;96542.03;5100115;28;20047;-75
2022/03/20 00:57:46;;;;;;;65.97;24.73;;;;;;;-1.14;76.78;96549.81;5099073;28;20504;-75
2022/03/20 01:00:12;;;;;;;64.43;24.38;;;;;;;-1.28;78.35;96552.13;5104383;28;20088;-75
2022/03/20 01:02:39;;;;;;;70.45;26.58;;;;;;;-1.19;77.71;96549.50;5102856;28;20315;-74
2022/03/20 01:05:05;;;;;;;66.35;25.05;;;;;;;-1.16;77.28;96551.75;5095489;28;20055;-74
2022/03/20 01:07:31;;;;;;;79.07;25.83;;;;;;;-1.11;76.93;96552.03;5094187;28;20066;-75
2022/03/20 01:09:56;;;;;;;73.07;24.90;;;;;;;-1.19;77.05;96549.50;5093445;28;20114;-74
2022/03/20 01:12:22;;;;;;;72.90;25.83;;;;;;;-1.24;77.23;96550.81;5092050;28;20040;-74
2022/03/20 01:14:47;;;;;;;65.55;23.42;;;;;;;-1.29;77.57;96547.94;5097416;28;20039;-74
2022/03/20 01:17:13;;;;;;;77.78;25.85;;;;;;;-1.34;77.38;96550.22;5099731;28;20082;-74
2022/03/20 01:19:39;;;;;;;68.53;25.77;;;;;;;-1.31;77.28;96549.88;5099175;28;20040;-74
2022/03/20 01:22:04;;;;;;;71.15;25.55;;;;;;;-1.35;77.88;96543.47;5100515;28;20039;-74
2022/03/20 01:24:30;;;;;;;64.55;24.67;;;;;;;-1.27;77.27;96545.97;5103285;28;20397;-74
2022/03/20 01:26:56;;;;;;;68.85;24.92;;;;;;;-1.38;77.40;96543.78;5093478;28;20090;-74
2022/03/20 01:29:21;;;;;;;66.63;24.38;;;;;;;-1.45;77.69;96548.00;5095321;28;20105;-74
2022/03/20 01:31:49;;;;;;;67.55;25.10;;;;;;;-1.43;78.13;96536.53;5095716;28;20040;-74
2022/03/20 01:34:14;;;;;;;75.80;25.73;;;;;;;-1.46;78.35;96546.41;5105371;28;20044;-74
2022/03/20 01:36:42;;;;;;;73.22;25.35;;;;;;;-1.54;78.56;96554.19;5096398;28;20150;-74
2022/03/20 01:39:08;;;;;;;65.10;25.52;;;;;;;-1.53;78.65;96555.78;5101983;28;20039;-74
2022/03/20 01:41:33;;;;;;;72.43;25.63;;;;;;;-1.54;78.66;96554.97;5100661;28;20105;-74
2022/03/20 01:44:01;;;;;;;70.70;25.55;;;;;;;-1.51;78.73;96559.00;5104899;28;20124;-74
2022/03/20 01:46:27;;;;;;;73.00;25.17;;;;;;;-1.60;78.45;96556.44;5109651;28;20036;-76
2022/03/20 01:48:53;;;;;;;69.88;25.13;;;;;;;-1.62;78.46;96553.22;5101300;28;20048;-73
2022/03/20 01:54:03;;;;;;;69.18;25.33;;;;;;;-1.62;78.98;96555.81;5108698;28;20039;-76
2022/03/20 01:56:32;;;;;;;67.68;23.77;;;;;;;-1.64;78.25;96555.19;5097725;28;20456;-76
2022/03/20 01:59:01;;;;;;;71.32;25.13;;;;;;;-1.67;79.17;96560.66;5098404;28;20036;-76
2022/03/20 02:01:26;;;;;;;76.03;26.05;;;;;;;-1.68;79.47;96551.31;5104683;28;20092;-76
2022/03/20 02:03:53;;;;;;;69.65;25.35;;;;;;;-1.81;79.81;96543.28;5094400;28;20039;-76
2022/03/20 02:06:19;;;;;;;72.25;25.45;;;;;;;-1.75;79.49;96551.19;5100634;28;20035;-76
2022/03/20 02:08:44;;;;;;;79.53;27.60;;;;;;;-1.69;79.87;96557.44;5099164;28;20048;-76
2022/03/20 02:11:10;;;;;;;63.33;24.85;;;;;;;-1.71;80.02;96549.09;5100380;28;20043;-76
2022/03/20 02:13:36;;;;;;;70.18;25.20;;;;;;;-1.76;80.40;96551.34;5104737;28;20040;-76
2022/03/20 02:16:01;;;;;;;79.00;25.75;;;;;;;-1.72;80.55;96550.03;5093594;28;20059;-76
2022/03/20 02:18:27;;;;;;;68.28;25.45;;;;;;;-1.76;79.58;96556.50;5095189;28;20085;-76
2022/03/20 02:20:53;;;;;;;74.13;24.67;;;;;;;-1.80;80.01;96555.22;5097431;28;20485;-76
2022/03/20 02:23:19;;;;;;;75.13;26.27;;;;;;;-1.80;79.43;96555.22;5091912;28;20055;-76
2022/03/20 02:25:50;;;;;;;70.38;25.30;;;;;;;-1.75;79.35;96558.91;5090837;28;20048;-76
2022/03/20 02:28:16;;;;;;;66.93;24.35;;;;;;;-1.82;79.80;96546.84;5094126;28;20043;-76
2022/03/20 02:30:42;;;;;;;76.88;25.92;;;;;;;-1.82;80.27;96546.84;5106677;28;20062;-76
2022/03/20 02:33:08;;;;;;;77.53;27.88;;;;;;;-1.88;80.66;96542.34;5083427;28;20031;-74
2022/03/20 02:35:34;;;;;;;77.85;27.88;;;;;;;-1.92;79.88;96540.09;5103292;28;20044;-76
2022/03/20 02:38:00;;;;;;;77.82;26.05;;;;;;;-1.94;80.43;96544.63;5110938;28;20455;-76
2022/03/20 02:40:25;;;;;;;77.03;26.88;;;;;;;-2.11;81.97;96532.72;5089097;28;20035;-76
2022/03/20 02:42:54;;;;;;;71.85;25.88;;;;;;;-1.90;80.98;96539.13;5098086;28;20052;-73
2022/03/20 02:45:28;;;;;;;72.90;26.52;;;;;;;-1.87;80.50;96538.78;5104048;28;20058;-76
2022/03/20 02:47:53;;;;;;;76.72;26.08;;;;;;;-1.90;81.28;96533.97;5108788;28;20047;-75
2022/03/20 02:50:25;;;;;;;80.43;27.40;;;;;;;-1.95;81.33;96535.25;5085963;28;20032;-76
2022/03/20 02:52:53;;;;;;;79.45;27.20;;;;;;;-2.18;82.47;96531.78;5096221;28;20098;-76
2022/03/20 02:55:20;;;;;;;86.65;28.13;;;;;;;-2.40;84.71;96539.19;5076685;28;20044;-76
2022/03/20 02:57:47;;;;;;;84.60;28.58;;;;;;;-2.54;86.03;96537.25;5089713;28;20497;-76
2022/03/20 03:00:21;;;;;;;85.03;29.10;;;;;;;-2.56;85.57;96534.03;5099356;28;20043;-77
2022/03/20 03:02:48;;;;;;;84.82;27.85;;;;;;;-2.37;84.63;96544.03;5094875;28;20135;-76
2022/03/20 03:05:16;;;;;;;84.40;28.20;;;;;;;-2.27;84.34;96539.50;5090786;28;20047;-76
2022/03/20 03:13:14;;;;;;;75.53;27.80;;;;;;;-2.18;84.19;96552.41;5101083;28;20057;-76
2022/03/20 03:15:40;;;;;;;77.40;27.70;;;;;;;-2.12;83.69;96562.06;5089814;28;20035;-76
2022/03/20 03:18:06;;;;;;;86.93;27.60;;;;;;;-2.15;83.71;96557.22;5089660;28;20067;-76
2022/03/20 03:20:32;;;;;;;78.93;28.70;;;;;;;-2.06;83.47;96563.97;5089771;28;20575;-75
2022/03/20 03:22:58;;;;;;;76.22;26.77;;;;;;;-1.99;83.59;96562.34;5090490;28;20036;-76
2022/03/20 03:25:24;;;;;;;78.13;27.20;;;;;;;-2.00;82.82;96573.63;5095439;28;20051;-75
2022/03/20 03:27:51;;;;;;;79.53;26.35;;;;;;;-2.03;84.10;96566.22;5094657;28;20036;-75
2022/03/20 03:30:17;;;;;;;76.13;25.45;;;;;;;-2.05;83.35;96573.34;5104658;28;20044;-75
2022/03/20 03:32:43;;;;;;;78.85;27.67;;;;;;;-2.06;82.30;96582.03;5101170;28;20036;-75
2022/03/20 03:37:54;;;;;;;75.65;26.88;;;;;;;-2.22;82.74;96582.06;5089554;28;20108;-75
2022/03/20 03:40:20;;;;;;;77.88;28.02;;;;;;;-2.21;82.56;96575.91;5089488;28;20048;-75
2022/03/20 03:42:46;;;;;;;70.53;25.77;;;;;;;-2.22;82.86;96576.91;5090099;28;20037;-75
2022/03/20 03:45:12;;;;;;;79.60;26.27;;;;;;;-2.18;83.15;96567.88;5104561;28;20066;-75
2022/03/20 03:47:38;;;;;;;75.00;25.80;;;;;;;-2.24;83.31;96578.81;5103390;28;20031;-75
2022/03/20 03:50:05;;;;;;;75.53;27.70;;;;;;;-2.31;82.77;96589.78;5089849;28;20047;-75
2022/03/20 03:52:30;;;;;;;79.68;26.23;;;;;;;-2.37;83.05;96585.28;5098345;28;20042;-75
2022/03/20 03:54:56;;;;;;;68.45;25.35;;;;;;;-2.37;83.24;96590.44;5085396;28;20039;-74
2022/03/20 03:57:21;;;;;;;73.88;27.50;;;;;;;-2.44;84.55;96594.63;5094032;28;20408;-75
2022/03/20 03:59:47;;;;;;;80.43;26.92;;;;;;;-2.44;85.08;96599.78;5082759;28;20043;-74
2022/03/20 04:02:14;;;;;;;74.35;25.90;;;;;;;-2.36;83.66;96602.34;5105409;28;20051;-75
2022/03/20 04:04:41;;;;;;;64.20;23.30;;;;;;;-2.37;84.08;96600.75;5088728;28;20719;-75
2022/03/20 04:07:07;;;;;;;74.05;25.80;;;;;;;-2.28;84.49;96599.78;5100611;28;20084;-75
2022/03/20 04:09:34;;;;;;;71.03;25.08;;;;;;;-2.38;83.88;96599.13;5101200;28;20044;-75
2022/03/20 04:11:59;;;;;;;73.55;25.45;;;;;;;-2.44;83.80;96599.78;5089003;28;20509;-75
2022/03/20 04:14:25;;;;;;;70.53;24.88;;;;;;;-2.50;83.74;96600.41;5102114;28;20074;-75
2022/03/20 04:16:53;;;;;;;71.47;26.17;;;;;;;-2.50;84.34;96600.41;5108166;28;20054;-75
2022/03/20 04:19:19;;;;;;;72.65;26.08;;;;;;;-2.50;84.61;96600.41;5095800;28;20105;-75
2022/03/20 04:21:44;;;;;;;70.75;24.88;;;;;;;-2.54;84.94;96599.09;5097017;28;20048;-75
2022/03/20 04:24:10;;;;;;;68.32;24.42;;;;;;;-2.54;84.69;96601.69;5090150;28;20074;-75
2022/03/20 04:26:35;;;;;;;71.45;25.85;;;;;;;-2.50;84.18;96605.56;5111540;28;20082;-74
2022/03/20 04:29:02;;;;;;;71.75;25.38;;;;;;;-2.55;84.37;96600.09;5108177;28;20135;-74
2022/03/20 04:31:28;;;;;;;74.78;26.58;;;;;;;-2.52;84.59;96597.19;5105832;28;20039;-74
2022/03/20 04:33:56;;;;;;;76.05;26.05;;;;;;;-2.57;84.26;96594.28;5110135;28;20454;-75
2022/03/20 04:36:23;;;;;;;73.55;26.27;;;;;;;-2.62;84.51;96603.28;5102016;28;20048;-74
2022/03/20 04:38:54;;;;;;;73.72;25.83;;;;;;;-2.73;84.65;96606.19;5105196;28;20181;-75
2022/03/20 04:41:21;;;;;;;69.93;26.58;;;;;;;-2.88;86.87;96602.63;5105605;28;20031;-75
2022/03/20 04:43:49;;;;;;;73.40;25.27;;;;;;;-3.11;87.53;96604.97;5096584;28;20583;-74
2022/03/20 04:46:16;;;;;;;74.53;26.60;;;;;;;-2.97;86.57;96604.38;5092424;28;20044;-74
2022/03/20 04:59:40;;;;;;;76.50;26.23;;;;;;;-3.13;88.25;96615.44;5101249;28;20043;-74
2022/03/20 05:02:05;;;;;;;70.05;25.90;;;;;;;-2.97;86.92;96612.88;5111548;28;20044;-74
2022/03/20 05:04:31;;;;;;;67.47;24.55;;;;;;;-3.02;87.11;96611.75;5092663;28;20043;-75
2022/03/20 05:06:57;;;;;;;71.70;24.63;;;;;;;-3.07;87.69;96619.94;5110084;28;20118;-75
2022/03/20 05:14:51;;;;;;;;;;;;;;;-2.96;86.47;96636.88;5098847;28;20044;-74
2022/03/20 05:17:17;;;;;;;59.30;22.15;;;;;;;-2.88;85.83;96643.84;5105554;28;19978;-74
2022/03/20 05:19:42;;;;;;;73.35;23.45;;;;;;;-2.85;86.04;96643.50;5105810;28;20070;-74
2022/03/20 05:22:10;;;;;;;77.35;25.55;;;;;;;-2.79;86.08;96637.72;5099985;28;20044;-74
2022/03/20 05:24:37;;;;;;;75.57;22.85;;;;;;;-3.02;87.55;96648.59;5097964;28;20429;-74
2022/03/20 05:27:03;;;;;;;69.88;24.45;;;;;;;-3.03;87.47;96647.00;5093047;28;20529;-74
2022/03/20 05:29:29;;;;;;;71.15;25.55;;;;;;;-2.98;87.05;96639.59;5100406;28;20048;-74
2022/03/20 05:31:56;;;;;;;74.28;25.77;;;;;;;-3.00;87.35;96645.91;5110357;28;20043;-74
2022/03/20 05:34:22;;;;;;;69.75;24.75;;;;;;;-3.09;87.52;96652.75;5101643;28;20191;-75
2022/03/20 05:36:49;;;;;;;66.30;23.80;;;;;;;-3.24;89.20;96654.31;5105633;28;20036;-74
2022/03/20 05:39:15;;;;;;;65.28;23.88;;;;;;;-3.06;88.11;96651.66;5110824;28;20084;-74
2022/03/20 05:41:46;;;;;;;74.70;26.05;;;;;;;-3.01;86.84;96645.06;5103609;28;20040;-74
2022/03/20 05:44:16;;;;;;;71.07;24.75;;;;;;;-3.02;87.12;96653.75;5095667;28;20063;-74
2022/03/20 05:46:44;;;;;;;70.13;24.98;;;;;;;-2.98;87.17;96649.91;5091236;28;20127;-74
2022/03/20 05:49:10;;;;;;;65.32;24.58;;;;;;;-2.99;87.41;96658.63;5091896;28;20047;-74
2022/03/20 05:51:37;;;;;;;68.32;25.40;;;;;;;-2.98;87.45;96654.25;5102279;28;20032;-74
2022/03/20 05:54:03;;;;;;;70.75;23.75;;;;;;;-2.82;87.09;96658.66;5103696;28;20125;-74
2022/03/20 05:59:12;;;;;;;68.57;24.75;;;;;;;-2.86;88.47;96657.34;5106159;28;20152;-74
2022/03/20 06:01:38;;;;;;;67.00;24.52;;;;;;;-2.75;87.49;96669.16;5104025;28;20854;-74
2022/03/20 06:04:05;;;;;;;63.70;24.33;;;;;;;-2.65;87.18;96665.47;5099422;28;20044;-73
2022/03/20 06:06:37;;;;;;;70.78;25.63;;;;;;;-2.49;86.98;96669.03;5074733;28;20123;-74
2022/03/20 06:09:06;;;;;;;64.40;25.40;;;;;;;-2.53;86.97;96672.91;5098121;28;20043;-74
2022/03/20 06:11:35;;;;;;;61.40;24.77;;;;;;;-2.56;87.36;96678.38;5094941;28;20439;-74
2022/03/20 06:14:04;;;;;;;69.80;23.52;;;;;;;-2.49;87.40;96676.78;5098808;28;20067;-74
2022/03/20 06:16:36;;;;;;;68.78;24.30;;;;;;;-2.44;87.14;96682.28;5105501;28;20116;-74
2022/03/20 06:19:05;;;;;;;63.13;23.92;;;;;;;-2.40;86.95;96683.56;5093105;28;20052;-74
2022/03/20 06:21:31;;;;;;;65.15;25.10;;;;;;;-2.40;87.45;96683.56;5104194;28;20047;-74
2022/03/20 06:23:56;;;;;;;69.05;25.45;;;;;;;-2.30;87.32;96683.41;5108909;28;20042;-74
2022/03/20 06:26:23;;;;;;;64.00;23.27;;;;;;;-2.32;87.46;96691.31;5099939;28;20046;-74
2022/03/20 06:28:50;;;;;;;60.22;23.42;;;;;;;-2.33;87.87;96691.47;5085882;28;20062;-74
2022/03/20 06:31:17;;;;;;;63.33;23.67;;;;;;;-2.16;87.30;96700.84;5106913;28;20043;-74
2022/03/20 06:33:46;;;;;;;65.93;24.40;;;;;;;-1.96;86.70;96701.34;5103993;28;20430;-74
2022/03/20 06:36:13;;;;;;;65.32;23.98;;;;;;;-1.89;86.52;96695.56;5104560;28;20054;-74
2022/03/20 06:38:39;;;;;;;65.95;23.73;;;;;;;-1.90;86.43;96699.09;5090947;28;20043;-75
2022/03/20 06:41:06;;;;;;;65.47;23.95;;;;;;;-1.93;86.82;96703.59;5088397;28;20036;-75
2022/03/20 06:43:37;;;;;;;65.00;23.65;;;;;;;-1.85;86.74;96701.97;5093074;28;20044;-74
2022/03/20 06:46:06;;;;;;;68.95;24.42;;;;;;;-1.65;86.58;96705.84;5103139;28;20064;-74
2022/03/20 06:48:33;;;;;;;62.58;24.33;;;;;;;-1.59;85.76;96701.81;5091903;28;20040;-74
2022/03/20 06:50:59;;;;;;;68.03;24.63;;;;;;;-1.49;86.18;96701.66;5072107;28;20046;-74
2022/03/20 06:53:24;;;;;;;63.03;24.35;;;;;;;-1.23;84.94;96711.78;5089699;28;20043;-74
2022/03/20 06:55:51;;;;;;;68.72;25.45;;;;;;;-0.77;82.88;96705.97;5097206;28;20119;-74
2022/03/20 06:58:17;;;;;;;63.30;24.40;;;;;;;-0.66;81.88;96710.78;5091526;28;20073;-74
2022/03/20 07:00:45;;;;;;;65.05;24.95;;;;;;;-0.80;82.83;96707.09;5097089;28;20044;-74
2022/03/20 07:03:10;;;;;;;62.47;24.50;;;;;;;-0.41;80.59;96705.47;5108491;28;20097;-74
2022/03/20 07:05:36;;;;;;;67.05;24.02;;;;;;;-0.12;78.59;96704.00;5097281;28;20537;-73
2022/03/20 07:08:04;;;;;;;74.15;25.80;;;;;;;-0.15;79.80;96709.53;5101016;28;20521;-74
2022/03/20 07:10:31;;;;;;;67.47;24.77;;;;;;;0.08;77.25;96712.91;5074645;28;20453;-74
2022/03/20 07:15:43;;;;;;;71.88;22.77;;;;;;;0.48;75.48;96705.78;5096059;28;20031;-74
2022/03/20 07:18:10;;;;;;;59.47;24.08;;;;;;;0.12;77.69;96713.38;5104150;28;20048;-73
2022/03/20 07:20:41;;;;;;;72.47;24.30;;;;;;;0.01;79.10;96719.75;5096084;28;20153;-74
2022/03/20 07:23:09;;;;;;;68.40;24.98;;;;;;;-0.01;78.18;96721.72;5099405;28;20039;-75
2022/03/20 07:31:05;;;;;;;70.18;25.63;;;;;;;0.67;75.71;96732.19;5107483;28;20051;-74
2022/03/20 07:33:30;;;;;;;68.13;25.77;;;;;;;0.76;76.12;96727.72;5115261;27;20101;-75
2022/03/20 07:35:56;;;;;;;69.20;25.70;;;;;;;0.60;76.84;96733.88;5107443;28;20146;-74
2022/03/20 07:38:21;;;;;;;63.03;25.17;;;;;;;0.85;76.03;96732.66;5109318;28;20051;-72
2022/03/20 07:40:47;;;;;;;69.55;25.52;;;;;;;0.69;76.49;96738.00;5103767;28;20227;-71
2022/03/20 07:43:13;;;;;;;67.15;23.98;;;;;;;0.79;75.39;96743.75;5092352;28;20075;-71
2022/03/20 07:45:38;;;;;;;65.28;24.50;;;;;;;1.14;74.11;96740.63;5077016;28;20040;-72
2022/03/20 07:48:04;;;;;;;67.90;25.58;;;;;;;0.99;73.23;96732.84;5083393;28;20036;-73
2022/03/20 07:50:29;;;;;;;66.47;25.55;;;;;;;0.99;72.87;96738.00;5096832;28;20050;-72
2022/03/20 07:52:59;;;;;;;73.53;27.48;;;;;;;0.98;73.53;96745.00;5098611;28;20482;-72
2022/03/20 07:55:27;;;;;;;62.22;25.55;;;;;;;0.99;73.70;96743.19;5093320;28;20043;-72
2022/03/20 07:57:53;;;;;;;73.20;26.77;;;;;;;1.39;72.31;96735.94;5088348;28;20134;-72
2022/03/20 08:00:19;;;;;;;69.22;26.50;;;;;;;1.70;72.03;96735.72;5093522;28;20043;-72
2022/03/20 08:02:45;;;;;;;59.83;23.25;;;;;;;1.85;71.19;96732.28;5118201;27;20050;-72
2022/03/20 08:05:11;;;;;;;68.75;26.13;;;;;;;1.98;70.84;96736.81;5096304;28;20047;-72
2022/03/20 08:07:40;;;;;;;71.68;25.73;;;;;;;1.81;71.45;96737.06;5093193;27;20040;-72
2022/03/20 08:10:10;;;;;;;75.82;25.48;;;;;;;1.77;71.26;96743.59;5099711;28;20160;-72
2022/03/20 08:12:36;;;;;;;69.60;25.95;;;;;;;2.00;70.56;96750.44;5105974;27;20039;-72
2022/03/20 08:15:03;;;;;;;67.22;25.77;;;;;;;2.27;69.89;96745.47;5102545;28;20059;-72
2022/03/20 08:17:29;;;;;;;69.00;26.17;;;;;;;2.50;69.16;96740.91;5096383;28;20439;-72
2022/03/20 08:19:58;;;;;;;67.25;26.63;;;;;;;2.52;67.97;96744.09;5092870;28;20494;-72
2022/03/20 08:22:27;;;;;;;59.63;24.70;;;;;;;3.04;67.04;96742.06;5103330;28;20040;-73
2022/03/20 08:24:52;;;;;;;75.55;26.63;;;;;;;3.40;65.54;96755.88;5106340;28;20036;-72
2022/03/20 08:27:20;;;;;;;70.80;26.02;;;;;;;3.58;65.13;96748.34;5094549;28;20429;-73
2022/03/20 08:29:46;;;;;;;54.25;21.65;;;;;;;3.95;63.67;96743.66;5098225;28;20035;-73
2022/03/20 08:32:12;;;;;;;73.47;26.33;;;;;;;4.03;63.80;96749.69;5093298;28;20089;-73
2022/03/20 08:34:37;;;;;;;73.78;25.73;;;;;;;3.98;63.21;96748.47;5096701;28;20035;-73
2022/03/20 08:37:03;;;;;;;65.07;25.23;;;;;;;4.32;63.00;96749.34;5096726;28;20040;-72
2022/03/20 08:39:29;;;;;;;62.42;26.25;;;;;;;4.41;61.69;96752.56;5095385;28;20483;-73
2022/03/20 08:41:54;;;;;;;64.43;27.27;;;;;;;4.54;62.62;96754.38;5096990;28;20044;-68
2022/03/20 08:44:20;;;;;;;72.40;27.30;;;;;;;4.63;61.10;96750.56;5095695;28;20036;-69
2022/03/20 08:46:46;;;;;;;71.90;26.17;;;;;;;4.76;61.52;96754.19;5095990;28;20489;-71
2022/03/20 08:49:11;;;;;;;70.55;26.90;;;;;;;4.62;61.85;96738.53;5099600;28;20043;-71
2022/03/20 08:51:40;;;;;;;65.70;25.90;;;;;;;4.39;63.58;96743.34;5103056;28;20146;-70
2022/03/20 08:54:06;;;;;;;78.53;27.00;;;;;;;4.80;61.69;96750.19;5098459;28;20085;-71
2022/03/20 08:56:33;;;;;;;71.53;27.40;;;;;;;5.24;59.48;96747.91;5088048;28;20169;-71
2022/03/20 08:58:59;;;;;;;77.43;27.48;;;;;;;5.22;60.23;96748.09;5095308;28;20078;-71
2022/03/20 09:01:25;;;;;;;72.38;28.27;;;;;;;4.76;61.14;96738.53;5105008;28;20408;-72
2022/03/20 09:03:52;;;;;;;71.93;27.13;;;;;;;4.75;62.30;96747.34;5101079;28;20040;-71
2022/03/20 09:06:21;;;;;;;66.22;27.52;;;;;;;4.73;62.41;96739.75;5106670;28;20039;-71
2022/03/20 09:08:48;;;;;;;69.20;28.20;;;;;;;4.77;62.80;96745.34;5096622;28;20039;-71
2022/03/20 09:11:13;;;;;;;73.60;27.63;;;;;;;4.77;60.48;96740.13;5097457;28;20046;-72
2022/03/20 09:13:39;;;;;;;66.68;25.88;;;;;;;4.99;62.14;96738.91;5105305;28;20441;-70
2022/03/20 09:18:59;;;;;;;68.90;25.42;;;;;;;5.00;60.98;96740.50;5095097;28;20074;-70
2022/03/20 09:21:36;;;;;;;70.70;25.30;;;;;;;5.90;56.66;96733.78;5097658;28;20051;-68
2022/03/20 09:24:02;;;;;;;75.40;28.20;;;;;;;5.76;58.26;96737.47;5093686;28;20720;-71
2022/03/20 09:26:28;;;;;;;64.85;25.95;;;;;;;5.88;56.68;96739.22;5101164;28;20035;-71
2022/03/20 09:28:54;;;;;;;70.93;26.67;;;;;;;5.80;56.91;96733.44;5092943;28;20105;-71
2022/03/20 09:31:20;;;;;;;69.32;25.42;;;;;;;6.20;55.58;96738.47;5100297;28;20420;-70
2022/03/20 09:33:47;;;;;;;71.63;25.90;;;;;;;6.50;55.71;96727.41;5105025;27;20036;-69
2022/03/20 09:36:12;;;;;;;68.50;26.02;;;;;;;6.46;55.41;96726.22;5097087;28;21581;-72
2022/03/20 09:38:39;;;;;;;75.60;26.80;;;;;;;6.40;56.43;96728.66;5106641;28;20043;-70
2022/03/20 09:41:07;;;;;;;71.55;26.92;;;;;;;6.49;55.38;96725.81;5109646;28;20043;-71
2022/03/20 09:43:44;;;;;;;69.18;26.23;;;;;;;6.79;53.70;96727.78;5098628;28;20051;-70
2022/03/20 09:46:09;;;;;;;67.70;26.10;;;;;;;7.00;54.60;96727.38;5092276;28;20101;-72
2022/03/20 09:48:35;;;;;;;73.93;27.17;;;;;;;7.48;51.85;96727.69;5091566;28;20048;-71
2022/03/20 09:51:04;;;;;;;65.00;27.25;;;;;;;7.54;53.78;96732.88;5077126;28;20400;-71
2022/03/20 09:53:30;;;;;;;68.38;26.63;;;;;;;7.36;53.35;96723.19;5091139;28;20533;-70
2022/03/20 09:55:56;;;;;;;75.45;26.75;;;;;;;7.44;53.05;96733.38;5104408;28;20036;-69
2022/03/20 09:58:26;;;;;;;67.80;27.13;;;;;;;7.89;52.48;96734.06;5092115;28;20071;-71
2022/03/20 10:00:53;;;;;;;69.10;25.92;;;;;;;8.00;51.77;96741.13;5091609;28;20061;-70
2022/03/20 10:03:22;;;;;;;65.57;25.75;;;;;;;8.30;50.12;96740.34;5103040;28;20067;-71
2022/03/20 10:06:17;;;;;;;69.32;27.23;;;;;;;8.45;49.45;96738.13;5100378;27;20040;-74
2022/03/20 10:08:54;;;;;;;62.65;26.27;;;;;;;8.79;48.81;96743.66;5105750;28;20040;-73
2022/03/20 10:11:21;;;;;;;79.63;28.13;;;;;;;9.37;48.38;96741.25;5103263;28;20044;-74
2022/03/20 10:14:08;;;;;;;74.40;28.23;;;;;;;9.08;46.19;96741.16;5091061;28;20051;-72
2022/03/20 10:16:39;;;;;;;78.40;27.25;;;;;;;9.44;47.48;96733.22;5095123;28;20035;-71
2022/03/20 10:19:40;;;;;;;64.25;26.33;;;;;;;9.73;44.26;96736.69;5098882;28;20048;-74
2022/03/20 10:22:08;;;;;;;67.43;25.92;;;;;;;10.75;42.42;96726.38;5038594;28;20057;-74
2022/03/20 10:24:39;;;;;;;62.83;25.55;;;;;;;12.28;41.74;96731.97;5091947;27;20552;-74
2022/03/20 10:27:05;;;;;;;65.75;26.92;;;;;;;12.77;38.86;96730.25;5095028;28;20036;-73
2022/03/20 10:29:33;;;;;;;76.32;28.38;;;;;;;13.16;38.51;96730.00;5097483;28;20429;-74
2022/03/20 10:32:08;;;;;;;69.75;26.58;;;;;;;14.17;37.26;96719.28;5099409;28;20035;-74
2022/03/20 10:34:48;;;;;;;64.35;26.55;;;;;;;14.71;35.51;96720.66;5097871;28;20031;-75
2022/03/20 10:37:15;;;;;;;64.45;26.92;;;;;;;13.32;35.24;96718.44;5091997;28;20047;-75
2022/03/20 10:39:42;;;;;;;55.45;24.40;;;;;;;13.51;37.08;96715.38;5101937;28;20051;-76
2022/03/20 10:42:15;;;;;;;43.50;21.73;;;;;;;14.43;35.76;96711.38;5096275;28;20546;-76
2022/03/20 10:44:41;;;;;;;43.08;19.65;;;;;;;14.98;33.25;96712.41;5093130;28;20102;-74
2022/03/20 10:47:13;;;;;;;31.77;17.05;;;;;;;14.53;34.00;96719.31;5093038;28;20044;-75
2022/03/20 10:50:02;;;;;;;27.20;16.33;;;;;;;15.07;32.24;96713.47;5104966;28;20043;-75
2022/03/20 10:52:29;;;;;;;23.65;14.95;;;;;;;13.99;33.28;96725.84;5092283;28;20039;-76
2022/03/20 10:54:55;;;;;;;25.05;14.45;;;;;;;13.96;33.35;96721.88;5096239;28;20032;-75
2022/03/20 10:57:21;;;;;;;20.80;13.18;;;;;;;15.00;32.32;96722.78;5104545;28;20044;-73
2022/03/20 11:00:14;;;;;;;21.23;13.32;;;;;;;15.45;30.80;96722.94;5100974;28;20047;-74
2022/03/20 11:02:41;;;;;;;20.58;13.27;;;;;;;14.64;30.19;96715.66;5094417;27;20039;-77
2022/03/20 11:05:08;;;;;;;24.10;12.57;;;;;;;15.34;30.07;96722.97;5094835;27;20040;-72
2022/03/20 11:07:35;;;;;;;17.20;11.80;;;;;;;15.80;29.67;96715.91;5104973;28;20043;-73
2022/03/20 11:10:00;;;;;;;18.17;12.20;;;;;;;16.12;29.22;96720.78;5095998;28;20128;-74
2022/03/20 11:12:29;;;;;;;18.83;12.57;;;;;;;16.35;29.36;96716.66;5089969;28;20155;-72
2022/03/20 11:14:58;;;;;;;18.40;12.98;;;;;;;15.24;30.99;96726.44;5109414;27;20035;-74
2022/03/20 11:17:31;;;;;;;19.08;12.82;;;;;;;17.00;28.57;96718.28;5099808;27;20416;-75
2022/03/20 11:19:57;;;;;;;22.80;14.05;;;;;;;15.85;29.67;96715.91;5106929;27;20097;-73
2022/03/20 11:22:24;;;;;;;19.73;13.40;;;;;;;16.05;30.07;96718.44;5079038;28;20050;-73
2022/03/20 11:24:52;;;;;;;21.27;13.20;;;;;;;16.29;29.63;96715.06;5091181;28;20124;-75
2022/03/20 11:27:28;;;;;;;20.42;14.48;;;;;;;17.13;28.87;96709.63;5090803;28;20485;-75
2022/03/20 11:30:07;;;;;;;37.83;14.23;;;;;;;15.96;29.76;96708.66;5099003;28;20044;-74
2022/03/20 11:32:34;;;;;;;20.83;13.60;;;;;;;15.90;30.00;96713.19;5112149;27;20036;-73
2022/03/20 11:35:01;;;;;;;21.38;14.10;;;;;;;15.26;29.82;96710.25;5100599;27;20035;-74
2022/03/20 11:37:48;;;;;;;22.70;13.57;;;;;;;17.98;26.94;96709.97;5091828;28;20063;-73
2022/03/20 11:40:17;;;;;;;22.70;13.80;;;;;;;17.87;27.31;96707.72;5108593;28;20104;-72
2022/03/20 11:42:43;;;;;;;19.02;13.65;;;;;;;18.26;27.31;96709.31;5103734;28;20039;-72
2022/03/20 11:45:17;;;;;;;21.17;12.55;;;;;;;18.57;27.01;96695.53;5080365;28;20047;-71
2022/03/20 11:48:15;;;;;;;19.83;13.38;;;;;;;16.37;28.52;96701.22;5105215;27;20039;-71
2022/03/20 11:50:49;;;;;;;20.92;13.38;;;;;;;18.81;24.52;96690.84;5094508;28;20039;-71
2022/03/20 11:53:30;;;;;;;21.45;13.52;;;;;;;18.49;26.05;96681.00;5091804;28;20046;-74
2022/03/20 11:55:56;;;;;;;20.90;13.52;;;;;;;19.10;25.28;96689.84;5095169;28;20036;-73
2022/03/20 11:58:24;;;;;;;21.05;13.70;;;;;;;19.24;26.16;96689.84;5078101;28;20050;-73
2022/03/20 12:01:03;;;;;;;25.52;13.90;;;;;;;19.67;25.93;96686.09;5101379;28;20106;-73
2022/03/20 12:03:47;;;;;;;22.23;15.60;;;;;;;17.42;27.97;96687.50;5093194;28;20416;-74